sensor_id;sensor_type;location;lat;lon;timestamp;P1;durP1;ratioP1;P2;durP2;ratioP2
51326;SDS011;37412;52.836;6.362;2023-12-28T00:00:58;6.68;;;3.80;;
51326;SDS011;37412;52.836;6.362;2023-12-28T00:03:44;6.45;;;3.55;;
51326;SDS011;37412;52.836;6.362;2023-12-28T00:06:30;5.07;;;3.30;;
51326;SDS011;37412;52.836;6.362;2023-12-28T00:09:16;6.50;;;3.97;;
51326;SDS011;37412;52.836;6.362;2023-12-28T00:12:02;6.65;;;3.65;;
51326;SDS011;37412;52.836;6.362;2023-12-28T00:14:48;5.03;;;3.63;;
51326;SDS011;37412;52.836;6.362;2023-12-28T00:17:35;5.13;;;3.42;;
51326;SDS011;37412;52.836;6.362;2023-12-28T00:20:21;5.35;;;3.70;;
51326;SDS011;37412;52.836;6.362;2023-12-28T00:23:07;6.60;;;3.58;;
51326;SDS011;37412;52.836;6.362;2023-12-28T00:25:53;4.63;;;3.63;;
51326;SDS011;37412;52.836;6.362;2023-12-28T00:28:39;4.82;;;3.47;;
51326;SDS011;37412;52.836;6.362;2023-12-28T00:31:25;5.40;;;3.90;;
51326;SDS011;37412;52.836;6.362;2023-12-28T00:34:11;5.18;;;3.70;;
51326;SDS011;37412;52.836;6.362;2023-12-28T00:36:57;7.53;;;4.27;;
51326;SDS011;37412;52.836;6.362;2023-12-28T00:39:43;6.85;;;3.85;;
51326;SDS011;37412;52.836;6.362;2023-12-28T00:42:29;6.80;;;3.85;;
51326;SDS011;37412;52.836;6.362;2023-12-28T00:45:15;4.82;;;3.78;;
51326;SDS011;37412;52.836;6.362;2023-12-28T00:48:01;5.13;;;3.80;;
51326;SDS011;37412;52.836;6.362;2023-12-28T00:50:48;7.45;;;3.78;;
51326;SDS011;37412;52.836;6.362;2023-12-28T00:53:33;6.93;;;3.90;;
51326;SDS011;37412;52.836;6.362;2023-12-28T00:56:19;6.38;;;3.60;;
51326;SDS011;37412;52.836;6.362;2023-12-28T00:59:06;5.25;;;3.10;;
51326;SDS011;37412;52.836;6.362;2023-12-28T01:01:52;7.80;;;3.95;;
51326;SDS011;37412;52.836;6.362;2023-12-28T01:04:38;7.03;;;3.97;;
51326;SDS011;37412;52.836;6.362;2023-12-28T01:07:24;7.78;;;3.78;;
51326;SDS011;37412;52.836;6.362;2023-12-28T01:10:10;6.28;;;3.60;;
51326;SDS011;37412;52.836;6.362;2023-12-28T01:12:56;6.33;;;3.70;;
51326;SDS011;37412;52.836;6.362;2023-12-28T01:15:42;9.43;;;3.92;;
51326;SDS011;37412;52.836;6.362;2023-12-28T01:18:28;8.00;;;3.90;;
51326;SDS011;37412;52.836;6.362;2023-12-28T01:21:14;7.18;;;3.60;;
51326;SDS011;37412;52.836;6.362;2023-12-28T01:24:00;7.45;;;4.30;;
51326;SDS011;37412;52.836;6.362;2023-12-28T01:26:46;6.93;;;3.70;;
51326;SDS011;37412;52.836;6.362;2023-12-28T01:29:32;7.53;;;3.95;;
51326;SDS011;37412;52.836;6.362;2023-12-28T01:32:19;8.02;;;4.40;;
51326;SDS011;37412;52.836;6.362;2023-12-28T01:35:05;7.15;;;3.70;;
51326;SDS011;37412;52.836;6.362;2023-12-28T01:37:52;8.57;;;3.70;;
51326;SDS011;37412;52.836;6.362;2023-12-28T01:40:38;8.00;;;3.75;;
51326;SDS011;37412;52.836;6.362;2023-12-28T01:43:28;9.80;;;4.00;;
51326;SDS011;37412;52.836;6.362;2023-12-28T01:46:15;10.43;;;4.18;;
51326;SDS011;37412;52.836;6.362;2023-12-28T01:49:04;11.35;;;4.13;;
51326;SDS011;37412;52.836;6.362;2023-12-28T01:51:50;9.70;;;3.80;;
51326;SDS011;37412;52.836;6.362;2023-12-28T01:54:36;8.30;;;3.45;;
51326;SDS011;37412;52.836;6.362;2023-12-28T01:57:24;11.83;;;3.60;;
51326;SDS011;37412;52.836;6.362;2023-12-28T02:00:10;9.68;;;3.50;;
51326;SDS011;37412;52.836;6.362;2023-12-28T02:02:57;10.57;;;3.92;;
51326;SDS011;37412;52.836;6.362;2023-12-28T02:05:46;8.65;;;3.80;;
51326;SDS011;37412;52.836;6.362;2023-12-28T02:08:32;8.52;;;3.45;;
51326;SDS011;37412;52.836;6.362;2023-12-28T02:11:18;9.80;;;3.40;;
51326;SDS011;37412;52.836;6.362;2023-12-28T02:14:05;11.63;;;3.85;;
51326;SDS011;37412;52.836;6.362;2023-12-28T02:17:01;10.13;;;3.53;;
51326;SDS011;37412;52.836;6.362;2023-12-28T02:20:09;11.50;;;3.95;;
51326;SDS011;37412;52.836;6.362;2023-12-28T02:22:56;10.13;;;3.33;;
51326;SDS011;37412;52.836;6.362;2023-12-28T02:25:43;9.20;;;3.50;;
51326;SDS011;37412;52.836;6.362;2023-12-28T02:28:29;11.18;;;3.60;;
51326;SDS011;37412;52.836;6.362;2023-12-28T02:31:21;9.30;;;3.43;;
51326;SDS011;37412;52.836;6.362;2023-12-28T02:34:12;11.25;;;3.55;;
51326;SDS011;37412;52.836;6.362;2023-12-28T02:37:04;9.80;;;3.60;;
51326;SDS011;37412;52.836;6.362;2023-12-28T02:39:51;8.93;;;3.60;;
51326;SDS011;37412;52.836;6.362;2023-12-28T02:42:38;10.80;;;3.33;;
51326;SDS011;37412;52.836;6.362;2023-12-28T02:45:24;8.50;;;3.40;;
51326;SDS011;37412;52.836;6.362;2023-12-28T02:48:11;10.10;;;3.20;;
51326;SDS011;37412;52.836;6.362;2023-12-28T02:50:57;9.10;;;3.22;;
51326;SDS011;37412;52.836;6.362;2023-12-28T02:53:43;10.40;;;3.20;;
51326;SDS011;37412;52.836;6.362;2023-12-28T02:56:29;9.75;;;3.08;;
51326;SDS011;37412;52.836;6.362;2023-12-28T02:59:15;12.68;;;3.15;;
51326;SDS011;37412;52.836;6.362;2023-12-28T03:02:01;8.20;;;2.97;;
51326;SDS011;37412;52.836;6.362;2023-12-28T03:04:47;10.70;;;2.92;;
51326;SDS011;37412;52.836;6.362;2023-12-28T03:07:33;9.15;;;2.83;;
51326;SDS011;37412;52.836;6.362;2023-12-28T03:10:19;11.10;;;3.50;;
51326;SDS011;37412;52.836;6.362;2023-12-28T03:13:05;10.77;;;3.13;;
51326;SDS011;37412;52.836;6.362;2023-12-28T03:15:51;7.80;;;2.80;;
51326;SDS011;37412;52.836;6.362;2023-12-28T03:18:37;12.27;;;3.13;;
51326;SDS011;37412;52.836;6.362;2023-12-28T03:21:23;9.75;;;3.10;;
51326;SDS011;37412;52.836;6.362;2023-12-28T03:24:09;11.55;;;3.40;;
51326;SDS011;37412;52.836;6.362;2023-12-28T03:26:55;8.95;;;3.00;;
51326;SDS011;37412;52.836;6.362;2023-12-28T03:29:41;9.25;;;2.95;;
51326;SDS011;37412;52.836;6.362;2023-12-28T03:32:28;9.77;;;2.83;;
51326;SDS011;37412;52.836;6.362;2023-12-28T03:35:14;9.52;;;2.78;;
51326;SDS011;37412;52.836;6.362;2023-12-28T03:38:00;9.30;;;2.95;;
51326;SDS011;37412;52.836;6.362;2023-12-28T03:40:46;8.77;;;3.03;;
51326;SDS011;37412;52.836;6.362;2023-12-28T03:43:33;10.02;;;2.92;;
51326;SDS011;37412;52.836;6.362;2023-12-28T03:46:19;10.93;;;3.15;;
51326;SDS011;37412;52.836;6.362;2023-12-28T03:49:08;8.30;;;3.00;;
51326;SDS011;37412;52.836;6.362;2023-12-28T03:51:54;9.52;;;2.70;;
51326;SDS011;37412;52.836;6.362;2023-12-28T03:54:40;11.32;;;3.20;;
51326;SDS011;37412;52.836;6.362;2023-12-28T03:57:26;11.38;;;2.97;;
51326;SDS011;37412;52.836;6.362;2023-12-28T04:00:12;9.20;;;2.80;;
51326;SDS011;37412;52.836;6.362;2023-12-28T04:02:58;8.95;;;2.90;;
51326;SDS011;37412;52.836;6.362;2023-12-28T04:05:46;8.60;;;2.50;;
51326;SDS011;37412;52.836;6.362;2023-12-28T04:08:32;8.57;;;2.70;;
51326;SDS011;37412;52.836;6.362;2023-12-28T04:11:18;10.38;;;3.10;;
51326;SDS011;37412;52.836;6.362;2023-12-28T04:14:04;9.57;;;2.92;;
51326;SDS011;37412;52.836;6.362;2023-12-28T04:16:50;10.88;;;3.05;;
51326;SDS011;37412;52.836;6.362;2023-12-28T04:19:36;8.52;;;2.55;;
51326;SDS011;37412;52.836;6.362;2023-12-28T04:22:22;12.93;;;3.10;;
51326;SDS011;37412;52.836;6.362;2023-12-28T04:25:08;11.80;;;3.30;;
51326;SDS011;37412;52.836;6.362;2023-12-28T04:27:54;11.18;;;2.72;;
51326;SDS011;37412;52.836;6.362;2023-12-28T04:30:40;10.40;;;2.92;;
51326;SDS011;37412;52.836;6.362;2023-12-28T04:33:26;11.40;;;3.03;;
51326;SDS011;37412;52.836;6.362;2023-12-28T04:36:12;11.27;;;2.95;;
51326;SDS011;37412;52.836;6.362;2023-12-28T04:38:59;12.55;;;2.88;;
51326;SDS011;37412;52.836;6.362;2023-12-28T04:41:45;11.32;;;2.72;;
51326;SDS011;37412;52.836;6.362;2023-12-28T04:44:31;11.32;;;3.00;;
51326;SDS011;37412;52.836;6.362;2023-12-28T04:47:17;10.85;;;3.03;;
51326;SDS011;37412;52.836;6.362;2023-12-28T04:50:04;13.30;;;3.40;;
51326;SDS011;37412;52.836;6.362;2023-12-28T04:52:50;11.90;;;2.93;;
51326;SDS011;37412;52.836;6.362;2023-12-28T04:55:36;9.82;;;2.95;;
51326;SDS011;37412;52.836;6.362;2023-12-28T04:58:22;12.65;;;3.58;;
51326;SDS011;37412;52.836;6.362;2023-12-28T05:01:08;9.65;;;2.50;;
51326;SDS011;37412;52.836;6.362;2023-12-28T05:03:54;11.35;;;3.00;;
51326;SDS011;37412;52.836;6.362;2023-12-28T05:06:40;14.25;;;3.22;;
51326;SDS011;37412;52.836;6.362;2023-12-28T05:09:26;10.93;;;3.47;;
51326;SDS011;37412;52.836;6.362;2023-12-28T05:12:12;11.73;;;2.97;;
51326;SDS011;37412;52.836;6.362;2023-12-28T05:14:58;13.30;;;3.15;;
51326;SDS011;37412;52.836;6.362;2023-12-28T05:17:44;12.18;;;3.13;;
51326;SDS011;37412;52.836;6.362;2023-12-28T05:20:30;11.77;;;3.03;;
51326;SDS011;37412;52.836;6.362;2023-12-28T05:23:16;13.73;;;3.30;;
51326;SDS011;37412;52.836;6.362;2023-12-28T05:26:02;13.40;;;2.95;;
51326;SDS011;37412;52.836;6.362;2023-12-28T05:28:48;12.63;;;3.17;;
51326;SDS011;37412;52.836;6.362;2023-12-28T05:31:34;10.25;;;3.10;;
51326;SDS011;37412;52.836;6.362;2023-12-28T05:34:20;11.20;;;2.83;;
51326;SDS011;37412;52.836;6.362;2023-12-28T05:37:06;12.95;;;3.30;;
51326;SDS011;37412;52.836;6.362;2023-12-28T05:39:52;15.38;;;3.60;;
51326;SDS011;37412;52.836;6.362;2023-12-28T05:42:38;14.05;;;3.15;;
51326;SDS011;37412;52.836;6.362;2023-12-28T05:45:24;13.85;;;3.15;;
51326;SDS011;37412;52.836;6.362;2023-12-28T05:48:10;12.90;;;3.00;;
51326;SDS011;37412;52.836;6.362;2023-12-28T05:50:59;12.77;;;3.10;;
51326;SDS011;37412;52.836;6.362;2023-12-28T05:53:45;13.05;;;3.35;;
51326;SDS011;37412;52.836;6.362;2023-12-28T05:56:31;11.38;;;3.08;;
51326;SDS011;37412;52.836;6.362;2023-12-28T05:59:17;14.70;;;3.20;;
51326;SDS011;37412;52.836;6.362;2023-12-28T06:02:03;11.60;;;3.20;;
51326;SDS011;37412;52.836;6.362;2023-12-28T06:04:49;12.27;;;3.00;;
51326;SDS011;37412;52.836;6.362;2023-12-28T06:07:40;12.82;;;3.20;;
51326;SDS011;37412;52.836;6.362;2023-12-28T06:10:26;10.50;;;3.00;;
51326;SDS011;37412;52.836;6.362;2023-12-28T06:13:12;12.82;;;2.97;;
51326;SDS011;37412;52.836;6.362;2023-12-28T06:15:58;12.90;;;3.10;;
51326;SDS011;37412;52.836;6.362;2023-12-28T06:18:44;13.40;;;3.00;;
51326;SDS011;37412;52.836;6.362;2023-12-28T06:21:30;13.75;;;3.08;;
51326;SDS011;37412;52.836;6.362;2023-12-28T06:24:16;13.63;;;3.20;;
51326;SDS011;37412;52.836;6.362;2023-12-28T06:27:03;12.77;;;3.40;;
51326;SDS011;37412;52.836;6.362;2023-12-28T06:29:49;12.10;;;3.00;;
51326;SDS011;37412;52.836;6.362;2023-12-28T06:32:35;14.57;;;3.00;;
51326;SDS011;37412;52.836;6.362;2023-12-28T06:35:22;12.35;;;3.30;;
51326;SDS011;37412;52.836;6.362;2023-12-28T06:38:08;14.20;;;3.28;;
51326;SDS011;37412;52.836;6.362;2023-12-28T06:40:54;15.15;;;3.47;;
51326;SDS011;37412;52.836;6.362;2023-12-28T06:43:40;12.77;;;3.05;;
51326;SDS011;37412;52.836;6.362;2023-12-28T06:46:27;15.37;;;3.57;;
51326;SDS011;37412;52.836;6.362;2023-12-28T06:49:13;14.20;;;3.20;;
51326;SDS011;37412;52.836;6.362;2023-12-28T06:51:59;13.95;;;3.25;;
51326;SDS011;37412;52.836;6.362;2023-12-28T06:54:45;14.63;;;3.42;;
51326;SDS011;37412;52.836;6.362;2023-12-28T06:57:31;13.45;;;3.67;;
51326;SDS011;37412;52.836;6.362;2023-12-28T07:00:17;15.57;;;3.50;;
51326;SDS011;37412;52.836;6.362;2023-12-28T07:03:03;14.10;;;3.40;;
51326;SDS011;37412;52.836;6.362;2023-12-28T07:05:49;20.63;;;3.93;;
51326;SDS011;37412;52.836;6.362;2023-12-28T07:08:35;14.82;;;3.65;;
51326;SDS011;37412;52.836;6.362;2023-12-28T07:11:21;14.48;;;3.15;;
51326;SDS011;37412;52.836;6.362;2023-12-28T07:14:07;14.93;;;4.07;;
51326;SDS011;37412;52.836;6.362;2023-12-28T07:16:54;16.23;;;3.58;;
51326;SDS011;37412;52.836;6.362;2023-12-28T07:19:40;14.98;;;3.55;;
51326;SDS011;37412;52.836;6.362;2023-12-28T07:22:26;19.50;;;3.80;;
51326;SDS011;37412;52.836;6.362;2023-12-28T07:25:12;17.43;;;3.77;;
51326;SDS011;37412;52.836;6.362;2023-12-28T07:27:58;15.45;;;3.20;;
51326;SDS011;37412;52.836;6.362;2023-12-28T07:30:44;19.45;;;4.30;;
51326;SDS011;37412;52.836;6.362;2023-12-28T07:33:30;18.25;;;3.83;;
51326;SDS011;37412;52.836;6.362;2023-12-28T07:36:16;17.67;;;3.58;;
51326;SDS011;37412;52.836;6.362;2023-12-28T07:39:02;17.23;;;3.97;;
51326;SDS011;37412;52.836;6.362;2023-12-28T07:41:48;18.87;;;4.40;;
51326;SDS011;37412;52.836;6.362;2023-12-28T07:44:35;22.63;;;4.32;;
51326;SDS011;37412;52.836;6.362;2023-12-28T07:47:21;16.55;;;3.67;;
51326;SDS011;37412;52.836;6.362;2023-12-28T07:50:07;20.13;;;4.07;;
51326;SDS011;37412;52.836;6.362;2023-12-28T07:52:53;22.30;;;6.38;;
51326;SDS011;37412;52.836;6.362;2023-12-28T07:55:40;22.35;;;5.60;;
51326;SDS011;37412;52.836;6.362;2023-12-28T07:58:26;23.63;;;5.05;;
51326;SDS011;37412;52.836;6.362;2023-12-28T08:01:12;22.23;;;6.07;;
51326;SDS011;37412;52.836;6.362;2023-12-28T08:03:58;19.83;;;7.45;;
51326;SDS011;37412;52.836;6.362;2023-12-28T08:06:44;20.95;;;4.30;;
51326;SDS011;37412;52.836;6.362;2023-12-28T08:09:30;19.08;;;4.47;;
51326;SDS011;37412;52.836;6.362;2023-12-28T08:12:16;25.30;;;4.40;;
51326;SDS011;37412;52.836;6.362;2023-12-28T08:15:02;22.63;;;4.83;;
51326;SDS011;37412;52.836;6.362;2023-12-28T08:17:49;23.27;;;5.40;;
51326;SDS011;37412;52.836;6.362;2023-12-28T08:20:38;27.20;;;8.13;;
51326;SDS011;37412;52.836;6.362;2023-12-28T08:23:23;25.05;;;6.18;;
51326;SDS011;37412;52.836;6.362;2023-12-28T08:26:10;24.20;;;5.05;;
51326;SDS011;37412;52.836;6.362;2023-12-28T08:28:56;24.00;;;5.35;;
51326;SDS011;37412;52.836;6.362;2023-12-28T08:31:42;24.00;;;4.90;;
51326;SDS011;37412;52.836;6.362;2023-12-28T08:34:28;19.67;;;4.88;;
51326;SDS011;37412;52.836;6.362;2023-12-28T08:37:14;24.48;;;4.70;;
51326;SDS011;37412;52.836;6.362;2023-12-28T08:39:59;25.67;;;4.40;;
51326;SDS011;37412;52.836;6.362;2023-12-28T08:42:45;21.75;;;4.53;;
51326;SDS011;37412;52.836;6.362;2023-12-28T08:45:31;20.77;;;4.40;;
51326;SDS011;37412;52.836;6.362;2023-12-28T08:48:19;22.95;;;4.55;;
51326;SDS011;37412;52.836;6.362;2023-12-28T08:51:05;23.15;;;4.50;;
51326;SDS011;37412;52.836;6.362;2023-12-28T08:53:51;23.85;;;4.72;;
51326;SDS011;37412;52.836;6.362;2023-12-28T08:56:38;20.60;;;4.35;;
51326;SDS011;37412;52.836;6.362;2023-12-28T08:59:24;26.70;;;5.10;;
51326;SDS011;37412;52.836;6.362;2023-12-28T09:02:10;24.40;;;4.80;;
51326;SDS011;37412;52.836;6.362;2023-12-28T09:04:57;23.60;;;4.85;;
51326;SDS011;37412;52.836;6.362;2023-12-28T09:07:44;21.58;;;4.78;;
51326;SDS011;37412;52.836;6.362;2023-12-28T09:10:30;20.83;;;4.05;;
51326;SDS011;37412;52.836;6.362;2023-12-28T09:13:16;20.13;;;4.38;;
51326;SDS011;37412;52.836;6.362;2023-12-28T09:16:02;24.30;;;5.25;;
51326;SDS011;37412;52.836;6.362;2023-12-28T09:18:48;21.77;;;4.40;;
51326;SDS011;37412;52.836;6.362;2023-12-28T09:21:34;23.80;;;4.60;;
51326;SDS011;37412;52.836;6.362;2023-12-28T09:24:20;20.83;;;4.65;;
51326;SDS011;37412;52.836;6.362;2023-12-28T09:27:06;22.80;;;4.63;;
51326;SDS011;37412;52.836;6.362;2023-12-28T09:29:52;23.33;;;4.75;;
51326;SDS011;37412;52.836;6.362;2023-12-28T09:32:38;25.75;;;5.00;;
51326;SDS011;37412;52.836;6.362;2023-12-28T09:35:24;20.13;;;4.65;;
51326;SDS011;37412;52.836;6.362;2023-12-28T09:38:10;26.70;;;4.68;;
51326;SDS011;37412;52.836;6.362;2023-12-28T09:40:56;21.38;;;4.57;;
51326;SDS011;37412;52.836;6.362;2023-12-28T09:43:53;21.05;;;4.47;;
51326;SDS011;37412;52.836;6.362;2023-12-28T09:46:50;20.20;;;4.60;;
51326;SDS011;37412;52.836;6.362;2023-12-28T09:49:39;22.88;;;4.70;;
51326;SDS011;37412;52.836;6.362;2023-12-28T09:52:27;22.45;;;4.38;;
51326;SDS011;37412;52.836;6.362;2023-12-28T09:55:13;24.52;;;5.03;;
51326;SDS011;37412;52.836;6.362;2023-12-28T09:57:59;19.40;;;4.07;;
51326;SDS011;37412;52.836;6.362;2023-12-28T10:00:48;26.45;;;5.00;;
51326;SDS011;37412;52.836;6.362;2023-12-28T10:03:35;21.98;;;4.53;;
51326;SDS011;37412;52.836;6.362;2023-12-28T10:06:21;19.50;;;4.20;;
51326;SDS011;37412;52.836;6.362;2023-12-28T10:09:07;21.92;;;4.38;;
51326;SDS011;37412;52.836;6.362;2023-12-28T10:11:54;21.63;;;4.38;;
51326;SDS011;37412;52.836;6.362;2023-12-28T10:14:40;22.13;;;4.40;;
51326;SDS011;37412;52.836;6.362;2023-12-28T10:17:27;22.02;;;4.60;;
51326;SDS011;37412;52.836;6.362;2023-12-28T10:20:13;23.08;;;4.93;;
51326;SDS011;37412;52.836;6.362;2023-12-28T10:22:59;21.17;;;4.55;;
51326;SDS011;37412;52.836;6.362;2023-12-28T10:25:46;25.02;;;5.20;;
51326;SDS011;37412;52.836;6.362;2023-12-28T10:28:35;22.45;;;4.68;;
51326;SDS011;37412;52.836;6.362;2023-12-28T10:31:25;19.30;;;3.75;;
51326;SDS011;37412;52.836;6.362;2023-12-28T10:34:10;21.63;;;4.03;;
51326;SDS011;37412;52.836;6.362;2023-12-28T10:36:57;21.48;;;4.22;;
51326;SDS011;37412;52.836;6.362;2023-12-28T10:39:46;19.40;;;4.10;;
51326;SDS011;37412;52.836;6.362;2023-12-28T10:42:42;22.02;;;4.55;;
51326;SDS011;37412;52.836;6.362;2023-12-28T10:45:37;23.83;;;4.40;;
51326;SDS011;37412;52.836;6.362;2023-12-28T10:48:28;19.52;;;4.57;;
51326;SDS011;37412;52.836;6.362;2023-12-28T10:51:22;25.52;;;4.82;;
51326;SDS011;37412;52.836;6.362;2023-12-28T10:54:23;19.38;;;4.50;;
51326;SDS011;37412;52.836;6.362;2023-12-28T10:57:22;25.58;;;4.97;;
51326;SDS011;37412;52.836;6.362;2023-12-28T11:00:16;22.00;;;4.55;;
51326;SDS011;37412;52.836;6.362;2023-12-28T11:03:09;20.45;;;4.35;;
51326;SDS011;37412;52.836;6.362;2023-12-28T11:05:57;23.95;;;4.70;;
51326;SDS011;37412;52.836;6.362;2023-12-28T11:08:43;20.98;;;4.30;;
51326;SDS011;37412;52.836;6.362;2023-12-28T11:11:34;20.73;;;4.43;;
51326;SDS011;37412;52.836;6.362;2023-12-28T11:14:21;20.15;;;4.07;;
51326;SDS011;37412;52.836;6.362;2023-12-28T11:17:11;25.38;;;4.63;;
51326;SDS011;37412;52.836;6.362;2023-12-28T11:20:00;20.58;;;4.40;;
51326;SDS011;37412;52.836;6.362;2023-12-28T11:22:48;19.45;;;3.97;;
51326;SDS011;37412;52.836;6.362;2023-12-28T11:25:35;26.73;;;5.22;;
51326;SDS011;37412;52.836;6.362;2023-12-28T11:28:22;22.60;;;4.18;;
51326;SDS011;37412;52.836;6.362;2023-12-28T11:31:09;16.92;;;4.07;;
51326;SDS011;37412;52.836;6.362;2023-12-28T11:33:56;20.73;;;4.57;;
51326;SDS011;37412;52.836;6.362;2023-12-28T11:36:49;21.98;;;4.57;;
51326;SDS011;37412;52.836;6.362;2023-12-28T11:39:39;21.95;;;4.78;;
51326;SDS011;37412;52.836;6.362;2023-12-28T11:42:28;20.83;;;4.37;;
51326;SDS011;37412;52.836;6.362;2023-12-28T11:45:16;21.48;;;4.07;;
51326;SDS011;37412;52.836;6.362;2023-12-28T11:48:03;19.00;;;4.30;;
51326;SDS011;37412;52.836;6.362;2023-12-28T11:50:49;23.95;;;4.63;;
51326;SDS011;37412;52.836;6.362;2023-12-28T11:53:35;18.50;;;4.20;;
51326;SDS011;37412;52.836;6.362;2023-12-28T11:56:22;22.77;;;4.47;;
51326;SDS011;37412;52.836;6.362;2023-12-28T11:59:08;20.55;;;4.60;;
51326;SDS011;37412;52.836;6.362;2023-12-28T12:01:55;24.10;;;4.73;;
51326;SDS011;37412;52.836;6.362;2023-12-28T12:04:41;22.83;;;4.55;;
51326;SDS011;37412;52.836;6.362;2023-12-28T12:07:28;26.08;;;5.53;;
51326;SDS011;37412;52.836;6.362;2023-12-28T12:10:15;18.65;;;4.45;;
51326;SDS011;37412;52.836;6.362;2023-12-28T12:13:01;21.92;;;4.38;;
51326;SDS011;37412;52.836;6.362;2023-12-28T12:15:50;22.95;;;5.30;;
51326;SDS011;37412;52.836;6.362;2023-12-28T12:18:36;24.55;;;5.07;;
51326;SDS011;37412;52.836;6.362;2023-12-28T12:21:23;18.90;;;3.97;;
51326;SDS011;37412;52.836;6.362;2023-12-28T12:24:09;22.30;;;4.68;;
51326;SDS011;37412;52.836;6.362;2023-12-28T12:26:55;27.02;;;5.03;;
51326;SDS011;37412;52.836;6.362;2023-12-28T12:29:41;27.95;;;5.70;;
51326;SDS011;37412;52.836;6.362;2023-12-28T12:32:27;23.97;;;5.13;;
51326;SDS011;37412;52.836;6.362;2023-12-28T12:35:14;20.90;;;4.50;;
51326;SDS011;37412;52.836;6.362;2023-12-28T12:38:00;26.85;;;5.10;;
51326;SDS011;37412;52.836;6.362;2023-12-28T12:40:46;23.10;;;4.87;;
51326;SDS011;37412;52.836;6.362;2023-12-28T12:43:33;24.17;;;4.70;;
51326;SDS011;37412;52.836;6.362;2023-12-28T12:46:19;22.90;;;5.22;;
51326;SDS011;37412;52.836;6.362;2023-12-28T12:49:05;33.90;;;7.47;;
51326;SDS011;37412;52.836;6.362;2023-12-28T12:51:52;41.90;;;14.75;;
51326;SDS011;37412;52.836;6.362;2023-12-28T12:54:38;46.30;;;18.27;;
51326;SDS011;37412;52.836;6.362;2023-12-28T12:57:24;24.55;;;5.57;;
51326;SDS011;37412;52.836;6.362;2023-12-28T13:00:13;36.08;;;10.10;;
51326;SDS011;37412;52.836;6.362;2023-12-28T13:02:59;29.97;;;7.37;;
51326;SDS011;37412;52.836;6.362;2023-12-28T13:05:45;32.60;;;10.10;;
51326;SDS011;37412;52.836;6.362;2023-12-28T13:08:31;23.95;;;6.15;;
51326;SDS011;37412;52.836;6.362;2023-12-28T13:11:17;47.53;;;16.07;;
51326;SDS011;37412;52.836;6.362;2023-12-28T13:14:08;29.40;;;7.10;;
51326;SDS011;37412;52.836;6.362;2023-12-28T13:16:54;30.80;;;6.85;;
51326;SDS011;37412;52.836;6.362;2023-12-28T13:19:41;29.80;;;6.82;;
51326;SDS011;37412;52.836;6.362;2023-12-28T13:22:26;35.20;;;9.93;;
51326;SDS011;37412;52.836;6.362;2023-12-28T13:25:12;24.70;;;6.22;;
51326;SDS011;37412;52.836;6.362;2023-12-28T13:27:59;27.73;;;6.82;;
51326;SDS011;37412;52.836;6.362;2023-12-28T13:30:45;33.45;;;7.88;;
51326;SDS011;37412;52.836;6.362;2023-12-28T13:33:31;40.50;;;10.10;;
51326;SDS011;37412;52.836;6.362;2023-12-28T13:36:17;24.85;;;5.35;;
51326;SDS011;37412;52.836;6.362;2023-12-28T13:39:03;23.45;;;5.38;;
51326;SDS011;37412;52.836;6.362;2023-12-28T13:41:50;23.30;;;5.72;;
51326;SDS011;37412;52.836;6.362;2023-12-28T13:44:36;28.05;;;6.35;;
51326;SDS011;37412;52.836;6.362;2023-12-28T13:47:23;23.48;;;4.88;;
51326;SDS011;37412;52.836;6.362;2023-12-28T13:50:09;23.27;;;4.78;;
51326;SDS011;37412;52.836;6.362;2023-12-28T13:52:55;24.52;;;5.28;;
51326;SDS011;37412;52.836;6.362;2023-12-28T13:55:41;23.67;;;5.18;;
51326;SDS011;37412;52.836;6.362;2023-12-28T13:58:27;19.52;;;4.30;;
51326;SDS011;37412;52.836;6.362;2023-12-28T14:01:13;23.73;;;5.57;;
51326;SDS011;37412;52.836;6.362;2023-12-28T14:03:59;27.67;;;5.57;;
51326;SDS011;37412;52.836;6.362;2023-12-28T14:06:45;27.08;;;5.20;;
51326;SDS011;37412;52.836;6.362;2023-12-28T14:09:31;26.98;;;6.25;;
51326;SDS011;37412;52.836;6.362;2023-12-28T14:12:18;21.98;;;5.03;;
51326;SDS011;37412;52.836;6.362;2023-12-28T14:15:04;23.85;;;5.45;;
51326;SDS011;37412;52.836;6.362;2023-12-28T14:17:50;20.75;;;4.75;;
51326;SDS011;37412;52.836;6.362;2023-12-28T14:20:36;26.40;;;5.45;;
51326;SDS011;37412;52.836;6.362;2023-12-28T14:23:23;23.55;;;4.28;;
51326;SDS011;37412;52.836;6.362;2023-12-28T14:26:13;20.88;;;4.47;;
51326;SDS011;37412;52.836;6.362;2023-12-28T14:29:00;19.23;;;4.47;;
51326;SDS011;37412;52.836;6.362;2023-12-28T14:31:51;22.98;;;4.30;;
51326;SDS011;37412;52.836;6.362;2023-12-28T14:34:37;20.08;;;4.63;;
51326;SDS011;37412;52.836;6.362;2023-12-28T14:37:23;20.48;;;3.95;;
51326;SDS011;37412;52.836;6.362;2023-12-28T14:40:09;23.33;;;4.47;;
51326;SDS011;37412;52.836;6.362;2023-12-28T14:42:56;22.17;;;4.75;;
51326;SDS011;37412;52.836;6.362;2023-12-28T14:45:42;21.60;;;4.38;;
51326;SDS011;37412;52.836;6.362;2023-12-28T14:48:28;25.30;;;5.05;;
51326;SDS011;37412;52.836;6.362;2023-12-28T14:51:14;22.02;;;4.65;;
51326;SDS011;37412;52.836;6.362;2023-12-28T14:54:00;22.38;;;4.75;;
51326;SDS011;37412;52.836;6.362;2023-12-28T14:56:46;22.75;;;4.53;;
51326;SDS011;37412;52.836;6.362;2023-12-28T14:59:32;20.10;;;4.50;;
51326;SDS011;37412;52.836;6.362;2023-12-28T15:02:18;22.75;;;4.60;;
51326;SDS011;37412;52.836;6.362;2023-12-28T15:05:04;23.77;;;4.78;;
51326;SDS011;37412;52.836;6.362;2023-12-28T15:07:50;26.35;;;5.30;;
51326;SDS011;37412;52.836;6.362;2023-12-28T15:10:36;18.90;;;4.30;;
51326;SDS011;37412;52.836;6.362;2023-12-28T15:13:22;22.43;;;4.10;;
51326;SDS011;37412;52.836;6.362;2023-12-28T15:16:09;20.52;;;4.13;;
51326;SDS011;37412;52.836;6.362;2023-12-28T15:18:55;18.80;;;4.50;;
51326;SDS011;37412;52.836;6.362;2023-12-28T15:21:41;21.20;;;3.90;;
51326;SDS011;37412;52.836;6.362;2023-12-28T15:24:29;18.02;;;3.95;;
51326;SDS011;37412;52.836;6.362;2023-12-28T15:27:15;17.58;;;3.97;;
51326;SDS011;37412;52.836;6.362;2023-12-28T15:30:00;19.10;;;4.38;;
51326;SDS011;37412;52.836;6.362;2023-12-28T15:32:48;20.05;;;4.47;;
51326;SDS011;37412;52.836;6.362;2023-12-28T15:35:37;20.42;;;4.00;;
51326;SDS011;37412;52.836;6.362;2023-12-28T15:38:24;19.40;;;3.95;;
51326;SDS011;37412;52.836;6.362;2023-12-28T15:41:10;19.95;;;4.10;;
51326;SDS011;37412;52.836;6.362;2023-12-28T15:43:55;22.07;;;5.00;;
51326;SDS011;37412;52.836;6.362;2023-12-28T15:46:42;19.52;;;4.22;;
51326;SDS011;37412;52.836;6.362;2023-12-28T15:49:28;18.87;;;4.33;;
51326;SDS011;37412;52.836;6.362;2023-12-28T15:52:14;20.45;;;4.00;;
51326;SDS011;37412;52.836;6.362;2023-12-28T15:55:00;18.53;;;4.00;;
51326;SDS011;37412;52.836;6.362;2023-12-28T15:57:46;21.17;;;5.55;;
51326;SDS011;37412;52.836;6.362;2023-12-28T16:00:33;17.95;;;3.50;;
51326;SDS011;37412;52.836;6.362;2023-12-28T16:03:18;19.17;;;3.67;;
51326;SDS011;37412;52.836;6.362;2023-12-28T16:06:04;19.23;;;4.55;;
51326;SDS011;37412;52.836;6.362;2023-12-28T16:08:52;16.67;;;3.97;;
51326;SDS011;37412;52.836;6.362;2023-12-28T16:11:38;17.17;;;4.30;;
51326;SDS011;37412;52.836;6.362;2023-12-28T16:14:24;20.80;;;4.20;;
51326;SDS011;37412;52.836;6.362;2023-12-28T16:17:11;17.83;;;3.85;;
51326;SDS011;37412;52.836;6.362;2023-12-28T16:19:57;19.52;;;4.35;;
51326;SDS011;37412;52.836;6.362;2023-12-28T16:22:43;15.57;;;4.25;;
51326;SDS011;37412;52.836;6.362;2023-12-28T16:25:29;18.60;;;4.60;;
51326;SDS011;37412;52.836;6.362;2023-12-28T16:28:15;19.55;;;4.20;;
51326;SDS011;37412;52.836;6.362;2023-12-28T16:31:01;19.33;;;4.40;;